sensor_id;sensor_type;location;lat;lon;timestamp;P1;durP1;ratioP1;P2;durP2;ratioP2
16543;SDS011;8384;47.996;7.786;2023-08-06T00:01:10;2.77;;;2.40;;
16543;SDS011;8384;47.996;7.786;2023-08-06T00:03:35;3.00;;;2.70;;
16543;SDS011;8384;47.996;7.786;2023-08-06T00:06:01;3.00;;;2.70;;
16543;SDS011;8384;47.996;7.786;2023-08-06T00:08:26;3.28;;;2.78;;
16543;SDS011;8384;47.996;7.786;2023-08-06T00:10:52;2.93;;;2.60;;
16543;SDS011;8384;47.996;7.786;2023-08-06T00:13:17;4.50;;;2.67;;
16543;SDS011;8384;47.996;7.786;2023-08-06T00:15:43;4.00;;;2.83;;
16543;SDS011;8384;47.996;7.786;2023-08-06T00:18:08;2.67;;;2.40;;
16543;SDS011;8384;47.996;7.786;2023-08-06T00:20:33;4.30;;;2.83;;
16543;SDS011;8384;47.996;7.786;2023-08-06T00:22:58;3.00;;;2.42;;
16543;SDS011;8384;47.996;7.786;2023-08-06T00:25:24;3.90;;;2.53;;
16543;SDS011;8384;47.996;7.786;2023-08-06T00:27:49;3.23;;;2.40;;
16543;SDS011;8384;47.996;7.786;2023-08-06T00:30:14;2.77;;;2.40;;
16543;SDS011;8384;47.996;7.786;2023-08-06T00:32:39;2.67;;;2.37;;
16543;SDS011;8384;47.996;7.786;2023-08-06T00:35:05;3.00;;;2.37;;
16543;SDS011;8384;47.996;7.786;2023-08-06T00:37:30;3.65;;;2.50;;
16543;SDS011;8384;47.996;7.786;2023-08-06T00:39:56;3.57;;;2.43;;
16543;SDS011;8384;47.996;7.786;2023-08-06T00:42:21;2.22;;;2.03;;
16543;SDS011;8384;47.996;7.786;2023-08-06T00:44:47;3.13;;;2.25;;
16543;SDS011;8384;47.996;7.786;2023-08-06T00:47:13;3.13;;;2.20;;
16543;SDS011;8384;47.996;7.786;2023-08-06T00:49:38;2.35;;;2.08;;
16543;SDS011;8384;47.996;7.786;2023-08-06T00:52:05;2.63;;;2.00;;
16543;SDS011;8384;47.996;7.786;2023-08-06T00:54:31;2.97;;;2.30;;
16543;SDS011;8384;47.996;7.786;2023-08-06T00:56:58;2.57;;;1.97;;
16543;SDS011;8384;47.996;7.786;2023-08-06T00:59:24;2.17;;;1.98;;
16543;SDS011;8384;47.996;7.786;2023-08-06T01:01:50;2.50;;;2.00;;
16543;SDS011;8384;47.996;7.786;2023-08-06T01:04:16;2.72;;;1.98;;
16543;SDS011;8384;47.996;7.786;2023-08-06T01:06:46;2.35;;;1.90;;
16543;SDS011;8384;47.996;7.786;2023-08-06T01:12:15;2.53;;;2.10;;
16543;SDS011;8384;47.996;7.786;2023-08-06T01:17:29;2.60;;;2.00;;
16543;SDS011;8384;47.996;7.786;2023-08-06T01:19:55;2.42;;;1.77;;
16543;SDS011;8384;47.996;7.786;2023-08-06T01:22:20;2.47;;;1.97;;
16543;SDS011;8384;47.996;7.786;2023-08-06T01:24:48;2.17;;;1.80;;
16543;SDS011;8384;47.996;7.786;2023-08-06T01:27:17;2.00;;;1.80;;
16543;SDS011;8384;47.996;7.786;2023-08-06T01:30:12;2.83;;;2.10;;
16543;SDS011;8384;47.996;7.786;2023-08-06T01:32:43;2.35;;;1.70;;
16543;SDS011;8384;47.996;7.786;2023-08-06T01:35:12;2.00;;;1.80;;
16543;SDS011;8384;47.996;7.786;2023-08-06T01:37:40;2.30;;;1.88;;
16543;SDS011;8384;47.996;7.786;2023-08-06T01:40:10;3.40;;;2.00;;
16543;SDS011;8384;47.996;7.786;2023-08-06T01:42:39;2.05;;;1.77;;
16543;SDS011;8384;47.996;7.786;2023-08-06T01:45:06;2.15;;;1.95;;
16543;SDS011;8384;47.996;7.786;2023-08-06T01:47:32;2.70;;;1.80;;
16543;SDS011;8384;47.996;7.786;2023-08-06T01:49:57;3.47;;;1.73;;
16543;SDS011;8384;47.996;7.786;2023-08-06T01:52:23;2.83;;;1.70;;
16543;SDS011;8384;47.996;7.786;2023-08-06T01:54:48;2.13;;;1.80;;
16543;SDS011;8384;47.996;7.786;2023-08-06T01:57:13;1.80;;;1.50;;
16543;SDS011;8384;47.996;7.786;2023-08-06T01:59:38;2.57;;;1.70;;
16543;SDS011;8384;47.996;7.786;2023-08-06T02:02:04;2.22;;;1.70;;
16543;SDS011;8384;47.996;7.786;2023-08-06T02:04:29;4.32;;;1.95;;
16543;SDS011;8384;47.996;7.786;2023-08-06T02:06:54;2.70;;;1.80;;
16543;SDS011;8384;47.996;7.786;2023-08-06T02:09:20;2.73;;;1.90;;
16543;SDS011;8384;47.996;7.786;2023-08-06T02:11:45;2.63;;;2.03;;
16543;SDS011;8384;47.996;7.786;2023-08-06T02:14:10;2.90;;;1.97;;
16543;SDS011;8384;47.996;7.786;2023-08-06T02:16:36;3.15;;;2.03;;
16543;SDS011;8384;47.996;7.786;2023-08-06T02:19:02;2.22;;;1.85;;
16543;SDS011;8384;47.996;7.786;2023-08-06T02:21:27;3.03;;;2.20;;
16543;SDS011;8384;47.996;7.786;2023-08-06T02:23:52;3.00;;;2.23;;
16543;SDS011;8384;47.996;7.786;2023-08-06T02:26:17;3.10;;;2.10;;
16543;SDS011;8384;47.996;7.786;2023-08-06T02:28:43;2.83;;;2.10;;
16543;SDS011;8384;47.996;7.786;2023-08-06T02:31:08;3.73;;;2.07;;
16543;SDS011;8384;47.996;7.786;2023-08-06T02:33:33;3.22;;;2.13;;
16543;SDS011;8384;47.996;7.786;2023-08-06T02:35:59;2.70;;;2.20;;
16543;SDS011;8384;47.996;7.786;2023-08-06T02:38:26;4.78;;;2.40;;
16543;SDS011;8384;47.996;7.786;2023-08-06T02:40:51;2.60;;;2.13;;
16543;SDS011;8384;47.996;7.786;2023-08-06T02:43:16;3.40;;;1.87;;
16543;SDS011;8384;47.996;7.786;2023-08-06T02:45:42;3.50;;;2.10;;
16543;SDS011;8384;47.996;7.786;2023-08-06T02:48:07;2.22;;;1.75;;
16543;SDS011;8384;47.996;7.786;2023-08-06T02:50:37;3.03;;;1.70;;
16543;SDS011;8384;47.996;7.786;2023-08-06T02:53:04;3.08;;;1.60;;
16543;SDS011;8384;47.996;7.786;2023-08-06T02:55:29;2.70;;;1.50;;
16543;SDS011;8384;47.996;7.786;2023-08-06T02:57:54;2.83;;;1.40;;
16543;SDS011;8384;47.996;7.786;2023-08-06T03:00:20;2.03;;;1.13;;
16543;SDS011;8384;47.996;7.786;2023-08-06T03:02:45;1.40;;;1.03;;
16543;SDS011;8384;47.996;7.786;2023-08-06T03:05:10;1.80;;;0.97;;
16543;SDS011;8384;47.996;7.786;2023-08-06T03:07:36;2.50;;;1.07;;
16543;SDS011;8384;47.996;7.786;2023-08-06T03:10:02;2.00;;;0.90;;
16543;SDS011;8384;47.996;7.786;2023-08-06T03:12:28;1.45;;;0.88;;
16543;SDS011;8384;47.996;7.786;2023-08-06T03:14:54;2.03;;;0.90;;
16543;SDS011;8384;47.996;7.786;2023-08-06T03:17:20;1.40;;;0.60;;
16543;SDS011;8384;47.996;7.786;2023-08-06T03:19:45;2.17;;;0.80;;
16543;SDS011;8384;47.996;7.786;2023-08-06T03:22:11;2.38;;;0.80;;
16543;SDS011;8384;47.996;7.786;2023-08-06T03:24:36;1.53;;;0.60;;
16543;SDS011;8384;47.996;7.786;2023-08-06T03:27:02;0.75;;;0.55;;
16543;SDS011;8384;47.996;7.786;2023-08-06T03:29:27;1.23;;;0.63;;
16543;SDS011;8384;47.996;7.786;2023-08-06T03:31:53;0.73;;;0.50;;
16543;SDS011;8384;47.996;7.786;2023-08-06T03:34:19;1.90;;;0.50;;
16543;SDS011;8384;47.996;7.786;2023-08-06T03:36:44;1.25;;;0.55;;
16543;SDS011;8384;47.996;7.786;2023-08-06T03:39:10;1.13;;;0.50;;
16543;SDS011;8384;47.996;7.786;2023-08-06T03:41:35;1.40;;;0.50;;
16543;SDS011;8384;47.996;7.786;2023-08-06T03:44:00;1.10;;;0.53;;
16543;SDS011;8384;47.996;7.786;2023-08-06T03:46:28;0.77;;;0.45;;
16543;SDS011;8384;47.996;7.786;2023-08-06T03:48:54;1.60;;;0.50;;
16543;SDS011;8384;47.996;7.786;2023-08-06T03:51:19;1.60;;;0.60;;
16543;SDS011;8384;47.996;7.786;2023-08-06T03:53:44;1.20;;;0.60;;
16543;SDS011;8384;47.996;7.786;2023-08-06T03:56:10;1.70;;;0.60;;
16543;SDS011;8384;47.996;7.786;2023-08-06T03:58:35;2.37;;;0.70;;
16543;SDS011;8384;47.996;7.786;2023-08-06T04:01:00;1.87;;;0.60;;
16543;SDS011;8384;47.996;7.786;2023-08-06T04:03:27;1.90;;;0.70;;
16543;SDS011;8384;47.996;7.786;2023-08-06T04:05:52;1.50;;;0.70;;
16543;SDS011;8384;47.996;7.786;2023-08-06T04:08:17;1.40;;;0.70;;
16543;SDS011;8384;47.996;7.786;2023-08-06T04:10:43;2.80;;;0.80;;
16543;SDS011;8384;47.996;7.786;2023-08-06T04:13:08;3.58;;;1.02;;
16543;SDS011;8384;47.996;7.786;2023-08-06T04:15:33;3.70;;;1.20;;
16543;SDS011;8384;47.996;7.786;2023-08-06T04:17:59;2.60;;;1.10;;
16543;SDS011;8384;47.996;7.786;2023-08-06T04:20:24;3.67;;;1.00;;
16543;SDS011;8384;47.996;7.786;2023-08-06T04:22:50;2.73;;;1.20;;
16543;SDS011;8384;47.996;7.786;2023-08-06T04:25:15;3.67;;;1.40;;
16543;SDS011;8384;47.996;7.786;2023-08-06T04:27:45;3.88;;;1.40;;
16543;SDS011;8384;47.996;7.786;2023-08-06T04:30:11;3.53;;;1.25;;
16543;SDS011;8384;47.996;7.786;2023-08-06T04:32:37;4.18;;;1.40;;
16543;SDS011;8384;47.996;7.786;2023-08-06T04:35:03;5.20;;;1.70;;
16543;SDS011;8384;47.996;7.786;2023-08-06T04:37:28;4.53;;;1.67;;
16543;SDS011;8384;47.996;7.786;2023-08-06T04:39:53;4.17;;;1.60;;
16543;SDS011;8384;47.996;7.786;2023-08-06T04:42:19;4.10;;;1.53;;
16543;SDS011;8384;47.996;7.786;2023-08-06T04:44:44;3.37;;;1.40;;
16543;SDS011;8384;47.996;7.786;2023-08-06T04:47:09;4.55;;;1.73;;
16543;SDS011;8384;47.996;7.786;2023-08-06T04:49:34;4.63;;;1.73;;
16543;SDS011;8384;47.996;7.786;2023-08-06T04:52:00;5.50;;;2.00;;
16543;SDS011;8384;47.996;7.786;2023-08-06T04:54:25;4.47;;;1.63;;
16543;SDS011;8384;47.996;7.786;2023-08-06T04:56:50;5.37;;;2.03;;
16543;SDS011;8384;47.996;7.786;2023-08-06T04:59:16;4.97;;;1.80;;
16543;SDS011;8384;47.996;7.786;2023-08-06T05:01:41;6.60;;;2.00;;
16543;SDS011;8384;47.996;7.786;2023-08-06T05:04:06;6.63;;;2.00;;
16543;SDS011;8384;47.996;7.786;2023-08-06T05:06:31;4.22;;;1.80;;
16543;SDS011;8384;47.996;7.786;2023-08-06T05:08:57;5.43;;;2.00;;
16543;SDS011;8384;47.996;7.786;2023-08-06T05:11:22;5.90;;;1.90;;
16543;SDS011;8384;47.996;7.786;2023-08-06T05:13:49;4.93;;;1.77;;
16543;SDS011;8384;47.996;7.786;2023-08-06T05:16:14;5.50;;;2.00;;
16543;SDS011;8384;47.996;7.786;2023-08-06T05:18:39;6.77;;;2.13;;
16543;SDS011;8384;47.996;7.786;2023-08-06T05:21:05;6.87;;;2.10;;
16543;SDS011;8384;47.996;7.786;2023-08-06T05:23:31;8.23;;;2.50;;
16543;SDS011;8384;47.996;7.786;2023-08-06T05:25:56;7.60;;;2.30;;
16543;SDS011;8384;47.996;7.786;2023-08-06T05:28:21;6.50;;;2.10;;
16543;SDS011;8384;47.996;7.786;2023-08-06T05:30:47;5.43;;;2.10;;
16543;SDS011;8384;47.996;7.786;2023-08-06T05:33:12;6.20;;;2.00;;
16543;SDS011;8384;47.996;7.786;2023-08-06T05:35:37;6.13;;;2.10;;
16543;SDS011;8384;47.996;7.786;2023-08-06T05:38:02;5.80;;;1.97;;
16543;SDS011;8384;47.996;7.786;2023-08-06T05:40:28;7.32;;;2.15;;
16543;SDS011;8384;47.996;7.786;2023-08-06T05:42:53;5.78;;;2.00;;
16543;SDS011;8384;47.996;7.786;2023-08-06T05:45:19;6.25;;;2.10;;
16543;SDS011;8384;47.996;7.786;2023-08-06T05:47:44;5.10;;;1.80;;
16543;SDS011;8384;47.996;7.786;2023-08-06T05:50:10;5.10;;;1.70;;
16543;SDS011;8384;47.996;7.786;2023-08-06T05:52:35;4.30;;;1.70;;
16543;SDS011;8384;47.996;7.786;2023-08-06T05:55:00;6.27;;;1.80;;
16543;SDS011;8384;47.996;7.786;2023-08-06T05:57:25;5.80;;;1.80;;
16543;SDS011;8384;47.996;7.786;2023-08-06T05:59:51;5.77;;;1.80;;
16543;SDS011;8384;47.996;7.786;2023-08-06T06:02:16;5.10;;;1.70;;
16543;SDS011;8384;47.996;7.786;2023-08-06T06:04:43;3.80;;;1.40;;
16543;SDS011;8384;47.996;7.786;2023-08-06T06:07:09;4.40;;;1.40;;
16543;SDS011;8384;47.996;7.786;2023-08-06T06:09:34;6.00;;;1.60;;
16543;SDS011;8384;47.996;7.786;2023-08-06T06:11:59;4.53;;;1.70;;
16543;SDS011;8384;47.996;7.786;2023-08-06T06:14:24;4.40;;;1.70;;
16543;SDS011;8384;47.996;7.786;2023-08-06T06:16:50;4.67;;;1.37;;
16543;SDS011;8384;47.996;7.786;2023-08-06T06:19:15;3.73;;;1.37;;
16543;SDS011;8384;47.996;7.786;2023-08-06T06:21:40;4.53;;;1.40;;
16543;SDS011;8384;47.996;7.786;2023-08-06T06:24:06;4.67;;;1.60;;
16543;SDS011;8384;47.996;7.786;2023-08-06T06:26:31;4.22;;;1.55;;
16543;SDS011;8384;47.996;7.786;2023-08-06T06:28:57;4.13;;;1.30;;
16543;SDS011;8384;47.996;7.786;2023-08-06T06:31:22;3.53;;;1.30;;
16543;SDS011;8384;47.996;7.786;2023-08-06T06:33:48;3.50;;;1.27;;
16543;SDS011;8384;47.996;7.786;2023-08-06T06:36:13;3.97;;;1.57;;
16543;SDS011;8384;47.996;7.786;2023-08-06T06:38:38;3.77;;;1.57;;
16543;SDS011;8384;47.996;7.786;2023-08-06T06:41:04;3.77;;;1.33;;
16543;SDS011;8384;47.996;7.786;2023-08-06T06:43:29;4.83;;;1.30;;
16543;SDS011;8384;47.996;7.786;2023-08-06T06:46:01;3.33;;;1.20;;
16543;SDS011;8384;47.996;7.786;2023-08-06T06:48:26;3.53;;;1.13;;
16543;SDS011;8384;47.996;7.786;2023-08-06T06:50:53;4.40;;;1.30;;
16543;SDS011;8384;47.996;7.786;2023-08-06T06:53:18;4.73;;;1.30;;
16543;SDS011;8384;47.996;7.786;2023-08-06T06:55:44;3.27;;;1.10;;
16543;SDS011;8384;47.996;7.786;2023-08-06T06:58:09;4.40;;;1.30;;
16543;SDS011;8384;47.996;7.786;2023-08-06T07:00:37;3.93;;;1.20;;
16543;SDS011;8384;47.996;7.786;2023-08-06T07:03:03;1.75;;;1.00;;
16543;SDS011;8384;47.996;7.786;2023-08-06T07:05:28;2.97;;;1.03;;
16543;SDS011;8384;47.996;7.786;2023-08-06T07:07:54;1.80;;;1.10;;
16543;SDS011;8384;47.996;7.786;2023-08-06T07:10:19;2.93;;;1.10;;
16543;SDS011;8384;47.996;7.786;2023-08-06T07:12:44;2.27;;;0.97;;
16543;SDS011;8384;47.996;7.786;2023-08-06T07:15:10;2.50;;;0.90;;
16543;SDS011;8384;47.996;7.786;2023-08-06T07:17:35;3.00;;;0.90;;
16543;SDS011;8384;47.996;7.786;2023-08-06T07:20:00;2.10;;;0.97;;
16543;SDS011;8384;47.996;7.786;2023-08-06T07:22:26;1.90;;;0.70;;
16543;SDS011;8384;47.996;7.786;2023-08-06T07:24:51;1.93;;;0.70;;
16543;SDS011;8384;47.996;7.786;2023-08-06T07:27:16;3.33;;;1.08;;
16543;SDS011;8384;47.996;7.786;2023-08-06T07:29:42;1.10;;;0.63;;
16543;SDS011;8384;47.996;7.786;2023-08-06T07:32:07;1.40;;;0.77;;
16543;SDS011;8384;47.996;7.786;2023-08-06T07:34:32;1.30;;;0.60;;
16543;SDS011;8384;47.996;7.786;2023-08-06T07:36:58;1.47;;;0.70;;
16543;SDS011;8384;47.996;7.786;2023-08-06T07:39:23;1.43;;;0.60;;
16543;SDS011;8384;47.996;7.786;2023-08-06T07:41:48;2.17;;;0.50;;
16543;SDS011;8384;47.996;7.786;2023-08-06T07:44:14;1.30;;;0.47;;
16543;SDS011;8384;47.996;7.786;2023-08-06T07:46:40;0.82;;;0.40;;
16543;SDS011;8384;47.996;7.786;2023-08-06T07:49:05;0.63;;;0.40;;
16543;SDS011;8384;47.996;7.786;2023-08-06T07:51:30;0.70;;;0.47;;
16543;SDS011;8384;47.996;7.786;2023-08-06T07:53:55;1.20;;;0.60;;
16543;SDS011;8384;47.996;7.786;2023-08-06T07:56:21;0.80;;;0.40;;
16543;SDS011;8384;47.996;7.786;2023-08-06T07:58:46;0.63;;;0.43;;
16543;SDS011;8384;47.996;7.786;2023-08-06T08:01:11;0.67;;;0.37;;
16543;SDS011;8384;47.996;7.786;2023-08-06T08:03:37;0.40;;;0.30;;
16543;SDS011;8384;47.996;7.786;2023-08-06T08:06:02;0.70;;;0.40;;
16543;SDS011;8384;47.996;7.786;2023-08-06T08:08:27;1.13;;;0.30;;
16543;SDS011;8384;47.996;7.786;2023-08-06T08:10:53;1.05;;;0.30;;
16543;SDS011;8384;47.996;7.786;2023-08-06T08:13:20;0.80;;;0.30;;
16543;SDS011;8384;47.996;7.786;2023-08-06T08:15:45;0.77;;;0.30;;
16543;SDS011;8384;47.996;7.786;2023-08-06T08:18:11;0.80;;;0.50;;
16543;SDS011;8384;47.996;7.786;2023-08-06T08:20:36;0.40;;;0.30;;
16543;SDS011;8384;47.996;7.786;2023-08-06T08:23:01;0.80;;;0.30;;
16543;SDS011;8384;47.996;7.786;2023-08-06T08:25:27;0.75;;;0.35;;
16543;SDS011;8384;47.996;7.786;2023-08-06T08:27:53;1.20;;;0.30;;
16543;SDS011;8384;47.996;7.786;2023-08-06T08:30:19;1.00;;;0.40;;
16543;SDS011;8384;47.996;7.786;2023-08-06T08:32:45;0.37;;;0.30;;
16543;SDS011;8384;47.996;7.786;2023-08-06T08:35:10;2.07;;;0.50;;
16543;SDS011;8384;47.996;7.786;2023-08-06T08:37:38;0.75;;;0.30;;
16543;SDS011;8384;47.996;7.786;2023-08-06T08:40:04;1.30;;;0.30;;
16543;SDS011;8384;47.996;7.786;2023-08-06T08:42:31;0.30;;;0.30;;
16543;SDS011;8384;47.996;7.786;2023-08-06T08:44:56;0.90;;;0.55;;
16543;SDS011;8384;47.996;7.786;2023-08-06T08:47:22;1.35;;;0.50;;
16543;SDS011;8384;47.996;7.786;2023-08-06T08:49:49;1.60;;;0.57;;
16543;SDS011;8384;47.996;7.786;2023-08-06T08:52:19;0.93;;;0.43;;
16543;SDS011;8384;47.996;7.786;2023-08-06T08:54:47;0.93;;;0.35;;
16543;SDS011;8384;47.996;7.786;2023-08-06T08:57:17;1.20;;;0.40;;
16543;SDS011;8384;47.996;7.786;2023-08-06T08:59:43;0.43;;;0.43;;
16543;SDS011;8384;47.996;7.786;2023-08-06T09:02:09;0.40;;;0.30;;
16543;SDS011;8384;47.996;7.786;2023-08-06T09:04:37;0.63;;;0.40;;
16543;SDS011;8384;47.996;7.786;2023-08-06T09:07:05;1.40;;;0.40;;
16543;SDS011;8384;47.996;7.786;2023-08-06T09:09:33;1.42;;;0.40;;
16543;SDS011;8384;47.996;7.786;2023-08-06T09:12:03;1.15;;;0.40;;
16543;SDS011;8384;47.996;7.786;2023-08-06T09:14:37;0.73;;;0.30;;
16543;SDS011;8384;47.996;7.786;2023-08-06T09:17:02;0.40;;;0.30;;
16543;SDS011;8384;47.996;7.786;2023-08-06T09:19:29;0.30;;;0.30;;
16543;SDS011;8384;47.996;7.786;2023-08-06T09:21:55;0.60;;;0.30;;
16543;SDS011;8384;47.996;7.786;2023-08-06T09:24:22;0.50;;;0.30;;
16543;SDS011;8384;47.996;7.786;2023-08-06T09:26:47;0.65;;;0.30;;
16543;SDS011;8384;47.996;7.786;2023-08-06T09:29:12;0.40;;;0.30;;
16543;SDS011;8384;47.996;7.786;2023-08-06T09:31:41;0.40;;;0.25;;
16543;SDS011;8384;47.996;7.786;2023-08-06T09:34:17;0.95;;;0.30;;
16543;SDS011;8384;47.996;7.786;2023-08-06T09:36:50;0.35;;;0.35;;
16543;SDS011;8384;47.996;7.786;2023-08-06T09:39:19;0.80;;;0.30;;
16543;SDS011;8384;47.996;7.786;2023-08-06T09:41:46;0.32;;;0.20;;
16543;SDS011;8384;47.996;7.786;2023-08-06T09:44:18;0.60;;;0.30;;
16543;SDS011;8384;47.996;7.786;2023-08-06T09:46:51;0.60;;;0.25;;
16543;SDS011;8384;47.996;7.786;2023-08-06T09:49:19;0.70;;;0.30;;
16543;SDS011;8384;47.996;7.786;2023-08-06T09:51:48;0.30;;;0.30;;
16543;SDS011;8384;47.996;7.786;2023-08-06T09:54:17;0.40;;;0.40;;
16543;SDS011;8384;47.996;7.786;2023-08-06T09:56:44;0.90;;;0.32;;
16543;SDS011;8384;47.996;7.786;2023-08-06T09:59:10;0.20;;;0.20;;
16543;SDS011;8384;47.996;7.786;2023-08-06T10:01:36;0.40;;;0.30;;
16543;SDS011;8384;47.996;7.786;2023-08-06T10:04:02;0.50;;;0.30;;
16543;SDS011;8384;47.996;7.786;2023-08-06T10:06:29;0.60;;;0.30;;
16543;SDS011;8384;47.996;7.786;2023-08-06T10:08:55;0.50;;;0.30;;
16543;SDS011;8384;47.996;7.786;2023-08-06T10:11:24;0.65;;;0.35;;
16543;SDS011;8384;47.996;7.786;2023-08-06T10:13:51;0.70;;;0.40;;
16543;SDS011;8384;47.996;7.786;2023-08-06T10:16:20;0.80;;;0.50;;
16543;SDS011;8384;47.996;7.786;2023-08-06T10:18:47;0.50;;;0.30;;
16543;SDS011;8384;47.996;7.786;2023-08-06T10:21:14;0.50;;;0.35;;
16543;SDS011;8384;47.996;7.786;2023-08-06T10:23:41;1.00;;;0.40;;
16543;SDS011;8384;47.996;7.786;2023-08-06T10:26:06;1.20;;;0.40;;
16543;SDS011;8384;47.996;7.786;2023-08-06T10:28:36;0.67;;;0.43;;
16543;SDS011;8384;47.996;7.786;2023-08-06T10:31:04;0.50;;;0.40;;
16543;SDS011;8384;47.996;7.786;2023-08-06T10:33:41;0.40;;;0.40;;
16543;SDS011;8384;47.996;7.786;2023-08-06T10:36:10;0.40;;;0.40;;
16543;SDS011;8384;47.996;7.786;2023-08-06T10:38:43;1.20;;;0.40;;
16543;SDS011;8384;47.996;7.786;2023-08-06T10:41:16;0.68;;;0.40;;
16543;SDS011;8384;47.996;7.786;2023-08-06T10:43:51;1.30;;;0.40;;
16543;SDS011;8384;47.996;7.786;2023-08-06T10:46:26;0.97;;;0.40;;
16543;SDS011;8384;47.996;7.786;2023-08-06T10:48:52;0.50;;;0.30;;
16543;SDS011;8384;47.996;7.786;2023-08-06T10:51:18;0.52;;;0.30;;
16543;SDS011;8384;47.996;7.786;2023-08-06T10:53:47;0.43;;;0.43;;
16543;SDS011;8384;47.996;7.786;2023-08-06T10:56:16;0.50;;;0.30;;
16543;SDS011;8384;47.996;7.786;2023-08-06T10:58:44;1.13;;;0.40;;
16543;SDS011;8384;47.996;7.786;2023-08-06T11:01:10;0.90;;;0.50;;
16543;SDS011;8384;47.996;7.786;2023-08-06T11:03:36;0.50;;;0.40;;
16543;SDS011;8384;47.996;7.786;2023-08-06T11:06:02;1.15;;;0.40;;
16543;SDS011;8384;47.996;7.786;2023-08-06T11:08:29;0.57;;;0.40;;
16543;SDS011;8384;47.996;7.786;2023-08-06T11:11:07;1.03;;;0.63;;
16543;SDS011;8384;47.996;7.786;2023-08-06T11:13:38;0.95;;;0.40;;
16543;SDS011;8384;47.996;7.786;2023-08-06T11:16:07;0.40;;;0.40;;
16543;SDS011;8384;47.996;7.786;2023-08-06T11:18:33;0.50;;;0.40;;
16543;SDS011;8384;47.996;7.786;2023-08-06T11:21:02;0.95;;;0.50;;
16543;SDS011;8384;47.996;7.786;2023-08-06T11:23:28;0.45;;;0.38;;
16543;SDS011;8384;47.996;7.786;2023-08-06T11:25:57;0.73;;;0.40;;
16543;SDS011;8384;47.996;7.786;2023-08-06T11:28:22;0.80;;;0.40;;
16543;SDS011;8384;47.996;7.786;2023-08-06T11:30:48;0.60;;;0.38;;
16543;SDS011;8384;47.996;7.786;2023-08-06T11:33:14;0.60;;;0.22;;
16543;SDS011;8384;47.996;7.786;2023-08-06T11:35:40;0.30;;;0.25;;
16543;SDS011;8384;47.996;7.786;2023-08-06T11:38:06;0.30;;;0.20;;
16543;SDS011;8384;47.996;7.786;2023-08-06T11:40:32;0.30;;;0.30;;
16543;SDS011;8384;47.996;7.786;2023-08-06T11:42:58;0.47;;;0.20;;
16543;SDS011;8384;47.996;7.786;2023-08-06T11:45:23;0.10;;;0.10;;
16543;SDS011;8384;47.996;7.786;2023-08-06T11:47:50;0.43;;;0.22;;
16543;SDS011;8384;47.996;7.786;2023-08-06T11:50:27;0.25;;;0.20;;
16543;SDS011;8384;47.996;7.786;2023-08-06T11:53:00;0.20;;;0.20;;
16543;SDS011;8384;47.996;7.786;2023-08-06T11:55:26;0.25;;;0.20;;
16543;SDS011;8384;47.996;7.786;2023-08-06T11:57:53;0.10;;;0.10;;
16543;SDS011;8384;47.996;7.786;2023-08-06T12:00:19;0.22;;;0.22;;
16543;SDS011;8384;47.996;7.786;2023-08-06T12:02:47;0.20;;;0.20;;
16543;SDS011;8384;47.996;7.786;2023-08-06T12:05:22;0.20;;;0.20;;
16543;SDS011;8384;47.996;7.786;2023-08-06T12:07:57;0.60;;;0.30;;
16543;SDS011;8384;47.996;7.786;2023-08-06T12:10:24;1.38;;;0.20;;
16543;SDS011;8384;47.996;7.786;2023-08-06T12:12:50;0.70;;;0.38;;
16543;SDS011;8384;47.996;7.786;2023-08-06T12:15:17;0.60;;;0.22;;
16543;SDS011;8384;47.996;7.786;2023-08-06T12:17:42;0.40;;;0.30;;
16543;SDS011;8384;47.996;7.786;2023-08-06T12:20:08;1.17;;;0.45;;
16543;SDS011;8384;47.996;7.786;2023-08-06T12:22:34;1.17;;;0.80;;
16543;SDS011;8384;47.996;7.786;2023-08-06T12:25:01;0.70;;;0.60;;
16543;SDS011;8384;47.996;7.786;2023-08-06T12:27:28;0.77;;;0.50;;
16543;SDS011;8384;47.996;7.786;2023-08-06T12:29:54;0.30;;;0.28;;
16543;SDS011;8384;47.996;7.786;2023-08-06T12:32:19;0.47;;;0.20;;
16543;SDS011;8384;47.996;7.786;2023-08-06T12:34:44;0.40;;;0.30;;
16543;SDS011;8384;47.996;7.786;2023-08-06T12:37:10;0.87;;;0.30;;
16543;SDS011;8384;47.996;7.786;2023-08-06T12:39:35;0.40;;;0.30;;
16543;SDS011;8384;47.996;7.786;2023-08-06T12:42:02;0.45;;;0.40;;
16543;SDS011;8384;47.996;7.786;2023-08-06T12:44:28;1.83;;;0.67;;
16543;SDS011;8384;47.996;7.786;2023-08-06T12:46:54;0.68;;;0.40;;
16543;SDS011;8384;47.996;7.786;2023-08-06T12:49:20;0.80;;;0.60;;
16543;SDS011;8384;47.996;7.786;2023-08-06T12:51:46;1.20;;;0.60;;
16543;SDS011;8384;47.996;7.786;2023-08-06T12:54:12;1.70;;;0.50;;
16543;SDS011;8384;47.996;7.786;2023-08-06T12:56:37;1.00;;;0.60;;
16543;SDS011;8384;47.996;7.786;2023-08-06T12:59:03;0.93;;;0.47;;
16543;SDS011;8384;47.996;7.786;2023-08-06T13:01:28;0.60;;;0.50;;
16543;SDS011;8384;47.996;7.786;2023-08-06T13:03:53;1.10;;;0.60;;
16543;SDS011;8384;47.996;7.786;2023-08-06T13:06:18;0.70;;;0.47;;
16543;SDS011;8384;47.996;7.786;2023-08-06T13:08:44;0.50;;;0.50;;
16543;SDS011;8384;47.996;7.786;2023-08-06T13:11:09;0.73;;;0.50;;
16543;SDS011;8384;47.996;7.786;2023-08-06T13:13:34;1.03;;;0.57;;
16543;SDS011;8384;47.996;7.786;2023-08-06T13:16:00;0.90;;;0.40;;
16543;SDS011;8384;47.996;7.786;2023-08-06T13:18:25;0.83;;;0.40;;
16543;SDS011;8384;47.996;7.786;2023-08-06T13:20:53;1.30;;;0.40;;
16543;SDS011;8384;47.996;7.786;2023-08-06T13:23:19;0.77;;;0.50;;
16543;SDS011;8384;47.996;7.786;2023-08-06T13:25:44;0.87;;;0.57;;
16543;SDS011;8384;47.996;7.786;2023-08-06T13:28:10;0.83;;;0.60;;
16543;SDS011;8384;47.996;7.786;2023-08-06T13:30:36;1.30;;;0.55;;
16543;SDS011;8384;47.996;7.786;2023-08-06T13:33:06;0.70;;;0.70;;
16543;SDS011;8384;47.996;7.786;2023-08-06T13:35:32;1.00;;;0.60;;
16543;SDS011;8384;47.996;7.786;2023-08-06T13:37:57;0.63;;;0.50;;
16543;SDS011;8384;47.996;7.786;2023-08-06T13:40:23;0.60;;;0.45;;
16543;SDS011;8384;47.996;7.786;2023-08-06T13:42:48;0.43;;;0.43;;
16543;SDS011;8384;47.996;7.786;2023-08-06T13:45:13;0.80;;;0.60;;
16543;SDS011;8384;47.996;7.786;2023-08-06T13:47:38;1.00;;;0.60;;
16543;SDS011;8384;47.996;7.786;2023-08-06T13:50:04;0.80;;;0.60;;
16543;SDS011;8384;47.996;7.786;2023-08-06T13:52:30;0.82;;;0.55;;
16543;SDS011;8384;47.996;7.786;2023-08-06T13:54:56;0.70;;;0.60;;
16543;SDS011;8384;47.996;7.786;2023-08-06T13:57:21;1.07;;;0.70;;
16543;SDS011;8384;47.996;7.786;2023-08-06T13:59:46;1.08;;;0.70;;
16543;SDS011;8384;47.996;7.786;2023-08-06T14:02:12;0.65;;;0.55;;
16543;SDS011;8384;47.996;7.786;2023-08-06T14:04:37;1.20;;;0.60;;
16543;SDS011;8384;47.996;7.786;2023-08-06T14:07:03;1.00;;;0.50;;
16543;SDS011;8384;47.996;7.786;2023-08-06T14:09:29;1.40;;;0.70;;
16543;SDS011;8384;47.996;7.786;2023-08-06T14:11:54;0.90;;;0.50;;
16543;SDS011;8384;47.996;7.786;2023-08-06T14:14:19;0.77;;;0.60;;
16543;SDS011;8384;47.996;7.786;2023-08-06T14:16:50;0.80;;;0.57;;
16543;SDS011;8384;47.996;7.786;2023-08-06T14:19:16;1.00;;;0.63;;
16543;SDS011;8384;47.996;7.786;2023-08-06T14:21:41;1.07;;;0.60;;
16543;SDS011;8384;47.996;7.786;2023-08-06T14:24:06;0.60;;;0.53;;
16543;SDS011;8384;47.996;7.786;2023-08-06T14:26:32;1.03;;;0.63;;
16543;SDS011;8384;47.996;7.786;2023-08-06T14:28:57;0.87;;;0.63;;
16543;SDS011;8384;47.996;7.786;2023-08-06T14:31:22;1.37;;;0.80;;
16543;SDS011;8384;47.996;7.786;2023-08-06T14:33:47;1.23;;;0.70;;
16543;SDS011;8384;47.996;7.786;2023-08-06T14:36:13;1.13;;;0.80;;
16543;SDS011;8384;47.996;7.786;2023-08-06T14:38:38;1.20;;;0.60;;
16543;SDS011;8384;47.996;7.786;2023-08-06T14:41:04;0.93;;;0.60;;
16543;SDS011;8384;47.996;7.786;2023-08-06T14:43:29;0.80;;;0.60;;
16543;SDS011;8384;47.996;7.786;2023-08-06T14:45:54;0.60;;;0.50;;
16543;SDS011;8384;47.996;7.786;2023-08-06T14:48:19;0.85;;;0.60;;
16543;SDS011;8384;47.996;7.786;2023-08-06T14:50:45;0.77;;;0.60;;
16543;SDS011;8384;47.996;7.786;2023-08-06T14:53:10;1.00;;;0.63;;
16543;SDS011;8384;47.996;7.786;2023-08-06T14:55:36;0.85;;;0.70;;
16543;SDS011;8384;47.996;7.786;2023-08-06T14:58:02;2.10;;;0.67;;
16543;SDS011;8384;47.996;7.786;2023-08-06T15:00:27;1.07;;;0.67;;